Big Bear Station Historical Data
Daily Summary for January 18, 2019 Units:  English    Metric   Both
Next Day »
Daily Weekly Monthly Yearly Custom
  High: Low: Average:
Temperature: 45.5 °F 28.0 °F 37.2 °F
Dew Point: 34.8 °F 27.0 °F 31.2 °F
Humidity: 99% 59% 80%
Wind Speed: 6.8mph 0.0mph 1.6mph
Wind Gust: -999.0mph - -
Wind- - West
Pressure: 23.73 in 23.55 in -
Precipitation: 0.00 in    
Historical Graphs
 
 
Tabular Data for January 18, 2019
Time Temperature Dew Point Pressure Wind Wind Speed Wind Gust Humidity Rainfall Rate (Hourly)
00:11 33.4 °F 32.9 °F 23.57 in Calm   -999.0 mph 98% 0.00 in
00:26 33.8 °F 33.5 °F 23.56 in Calm   -999.0 mph 99% 0.00 in
00:42 33.6 °F 33.3 °F 23.56 in NNW 3.7 mph -999.0 mph 99% 0.00 in
00:57 34.2 °F 32.7 °F 23.56 in NW 4.2 mph -999.0 mph 94% 0.00 in
01:12 34.7 °F 32.3 °F 23.56 in NW 2.7 mph -999.0 mph 91% 0.00 in
01:27 35.2 °F 32.0 °F 23.56 in NW 2.7 mph -999.0 mph 88% 0.00 in
01:43 35.8 °F 32.0 °F 23.55 in NW 4.7 mph -999.0 mph 86% 0.00 in
01:58 36.0 °F 32.2 °F 23.55 in North 5.8 mph -999.0 mph 86% 0.00 in
02:13 37.0 °F 32.0 °F 23.56 in NNE 6.8 mph -999.0 mph 82% 0.00 in
02:28 37.4 °F 32.1 °F 23.56 in NW 6.3 mph -999.0 mph 81% 0.00 in
02:44 37.6 °F 32.0 °F 23.56 in NW 6.3 mph -999.0 mph 80% 0.00 in
02:59 37.8 °F 32.2 °F 23.56 in WNW 5.8 mph -999.0 mph 80% 0.00 in
03:14 37.2 °F 31.3 °F 23.56 in West 4.7 mph -999.0 mph 79% 0.00 in
03:29 37.6 °F 30.4 °F 23.57 in WNW 5.8 mph -999.0 mph 75% 0.00 in
03:44 37.2 °F 31.0 °F 23.57 in NW 5.8 mph -999.0 mph 78% 0.00 in
04:00 36.9 °F 31.3 °F 23.56 in NNW 4.2 mph -999.0 mph 80% 0.00 in
04:15 35.6 °F 30.9 °F 23.57 in Calm   -999.0 mph 83% 0.00 in
04:30 35.1 °F 31.3 °F 23.57 in Calm   -999.0 mph 86% 0.00 in
04:46 33.6 °F 30.1 °F 23.57 in SE 1.1 mph -999.0 mph 87% 0.00 in
05:01 33.1 °F 29.9 °F 23.57 in SSW 2.2 mph -999.0 mph 88% 0.00 in
05:16 32.2 °F 29.3 °F 23.58 in Calm   -999.0 mph 89% 0.00 in
05:31 31.8 °F 29.5 °F 23.57 in Calm   -999.0 mph 91% 0.00 in
05:46 31.5 °F 29.2 °F 23.58 in East 1.1 mph -999.0 mph 91% 0.00 in
06:02 30.9 °F 28.9 °F 23.59 in SSW 3.2 mph -999.0 mph 92% 0.00 in
06:17 31.8 °F 29.2 °F 23.59 in WNW 1.1 mph -999.0 mph 90% 0.00 in
06:32 32.9 °F 29.7 °F 23.59 in Calm   -999.0 mph 88% 0.00 in
06:49 35.1 °F 30.5 °F 23.60 in West 1.7 mph -999.0 mph 83% 0.00 in
07:04 35.2 °F 30.9 °F 23.60 in East 3.2 mph -999.0 mph 84% 0.00 in
07:19 36.5 °F 30.3 °F 23.60 in North 5.8 mph -999.0 mph 78% 0.00 in
07:34 37.6 °F 30.7 °F 23.60 in NNW 4.7 mph -999.0 mph 76% 0.00 in
07:50 37.4 °F 29.5 °F 23.61 in ESE 2.7 mph -999.0 mph 73% 0.00 in
08:05 37.6 °F 29.7 °F 23.61 in Calm   -999.0 mph 73% 0.00 in
08:20 37.4 °F 31.2 °F 23.61 in Calm   -999.0 mph 78% 0.00 in
08:35 38.3 °F 32.0 °F 23.61 in Calm   -999.0 mph 78% 0.00 in
08:51 40.1 °F 30.4 °F 23.62 in Calm   -999.0 mph 68% 0.00 in
09:06 41.5 °F 30.6 °F 23.62 in NE 2.7 mph -999.0 mph 65% 0.00 in
09:21 42.6 °F 31.7 °F 23.62 in Calm   -999.0 mph 65% 0.00 in
09:36 43.2 °F 32.2 °F 23.62 in Calm   -999.0 mph 65% 0.00 in
09:51 43.3 °F 31.9 °F 23.63 in Calm   -999.0 mph 64% 0.00 in
10:07 44.2 °F 31.2 °F 23.63 in Calm   -999.0 mph 60% 0.00 in
10:23 44.8 °F 32.2 °F 23.63 in NW 2.7 mph -999.0 mph 61% 0.00 in
10:38 45.3 °F 32.2 °F 23.63 in Calm   -999.0 mph 60% 0.00 in
10:53 45.5 °F 32.0 °F 23.64 in Calm   -999.0 mph 59% 0.00 in
11:08 45.1 °F 32.0 °F 23.63 in Calm   -999.0 mph 60% 0.00 in
11:23 45.1 °F 32.0 °F 23.62 in Calm   -999.0 mph 60% 0.00 in
11:39 44.8 °F 31.8 °F 23.61 in North 5.8 mph -999.0 mph 60% 0.00 in
11:55 43.7 °F 32.3 °F 23.61 in NNE 4.7 mph -999.0 mph 64% 0.00 in
12:10 42.8 °F 31.5 °F 23.61 in North 2.2 mph -999.0 mph 64% 0.00 in
12:25 42.1 °F 32.3 °F 23.62 in NNW 4.2 mph -999.0 mph 68% 0.00 in
12:40 42.1 °F 31.9 °F 23.62 in Calm   -999.0 mph 67% 0.00 in
12:55 41.9 °F 32.1 °F 23.61 in North 4.2 mph -999.0 mph 68% 0.00 in
13:11 42.3 °F 33.2 °F 23.61 in NW 3.7 mph -999.0 mph 70% 0.00 in
13:26 42.6 °F 32.8 °F 23.61 in NNE 4.7 mph -999.0 mph 68% 0.00 in
13:41 42.8 °F 33.3 °F 23.61 in NNW 4.2 mph -999.0 mph 69% 0.00 in
13:57 43.3 °F 32.7 °F 23.61 in Calm   -999.0 mph 66% 0.00 in
14:12 44.2 °F 33.2 °F 23.61 in NNW 2.7 mph -999.0 mph 65% 0.00 in
14:27 44.8 °F 33.0 °F 23.61 in Calm   -999.0 mph 63% 0.00 in
14:42 45.3 °F 32.6 °F 23.61 in North 2.7 mph -999.0 mph 61% 0.00 in
14:57 45.0 °F 32.8 °F 23.61 in NNW 2.2 mph -999.0 mph 62% 0.00 in
15:13 44.1 °F 33.1 °F 23.62 in NNW 2.2 mph -999.0 mph 65% 0.00 in
15:28 43.7 °F 33.1 °F 23.62 in Calm   -999.0 mph 66% 0.00 in
15:43 43.2 °F 33.4 °F 23.62 in Calm   -999.0 mph 68% 0.00 in
15:58 42.6 °F 33.5 °F 23.63 in Calm   -999.0 mph 70% 0.00 in
16:14 42.1 °F 33.4 °F 23.63 in Calm   -999.0 mph 71% 0.00 in
16:29 41.5 °F 33.5 °F 23.63 in Calm   -999.0 mph 73% 0.00 in
16:44 40.5 °F 34.8 °F 23.64 in Calm   -999.0 mph 80% 0.00 in
17:00 39.4 °F 34.4 °F 23.64 in Calm   -999.0 mph 82% 0.00 in
17:15 38.5 °F 33.8 °F 23.64 in Calm   -999.0 mph 83% 0.00 in
17:30 37.8 °F 33.4 °F 23.64 in Calm   -999.0 mph 84% 0.00 in
17:45 36.9 °F 33.1 °F 23.64 in Calm   -999.0 mph 86% 0.00 in
18:01 36.0 °F 32.5 °F 23.65 in Calm   -999.0 mph 87% 0.00 in
18:16 35.2 °F 32.0 °F 23.66 in Calm   -999.0 mph 88% 0.00 in
18:31 34.3 °F 31.4 °F 23.66 in Calm   -999.0 mph 89% 0.00 in
18:46 33.6 °F 30.7 °F 23.66 in Calm   -999.0 mph 89% 0.00 in
19:01 33.1 °F 30.5 °F 23.67 in Calm   -999.0 mph 90% 0.00 in
19:17 32.5 °F 29.9 °F 23.68 in Calm   -999.0 mph 90% 0.00 in
19:32 32.2 °F 30.1 °F 23.68 in Calm   -999.0 mph 92% 0.00 in
19:48 31.5 °F 29.7 °F 23.69 in Calm   -999.0 mph 93% 0.00 in
20:03 31.5 °F 30.0 °F 23.69 in Calm   -999.0 mph 94% 0.00 in
20:18 31.1 °F 29.8 °F 23.69 in Calm   -999.0 mph 95% 0.00 in
20:33 30.6 °F 29.3 °F 23.69 in Calm   -999.0 mph 95% 0.00 in
20:48 30.4 °F 29.1 °F 23.69 in Calm   -999.0 mph 95% 0.00 in
21:04 29.8 °F 28.5 °F 23.70 in Calm   -999.0 mph 95% 0.00 in
21:19 29.7 °F 28.4 °F 23.70 in Calm   -999.0 mph 95% 0.00 in
21:34 29.3 °F 28.0 °F 23.70 in Calm   -999.0 mph 95% 0.00 in
21:49 28.9 °F 27.6 °F 23.71 in Calm   -999.0 mph 95% 0.00 in
22:04 28.4 °F 27.2 °F 23.72 in Calm   -999.0 mph 95% 0.00 in
22:20 28.0 °F 27.0 °F 23.72 in Calm   -999.0 mph 96% 0.00 in
22:35 28.0 °F 27.3 °F 23.72 in Calm   -999.0 mph 97% 0.00 in
22:50 28.2 °F 27.5 °F 23.72 in Calm   -999.0 mph 97% 0.00 in
23:05 28.2 °F 27.5 °F 23.73 in Calm   -999.0 mph 97% 0.00 in
Big Bear CA Weather